DAL927 KLAS-KATL
Flight info
| Callsign | DAL927 |
|---|---|
| Flight time | 3h 8m |
| Altitude | 33000 |
| Route | NIITZ4 SSKEE GUP J72 ABQ J6 IRW J14 LIT J66 DEVAC RUSSA GLAVN2 |
| Aircraft | B738/M-SDE2E3FGHIRWXY/LB1 |
Departure
| Time | 2026-05-07 15:59 |
|---|---|
| Airport | Harry Reid International Airport (KLAS) |
Arrival
| Time | 2026-05-07 19:08 |
|---|---|
| Airport | Hartsfield Jackson Atlanta International Airport (KATL) |
| Time | Latitude | Longitude | Altitude | Speed | Heading |
|---|---|---|---|---|---|
| 2026-05-07 15:36 | 36.08018 | -115.13932 | 2092 ft | 0 kts | 314° |
| 2026-05-07 15:51 | 36.08003 | -115.13913 | 2092 ft | 4 kts | 310° |
| 2026-05-07 15:51 | 36.07987 | -115.13887 | 2092 ft | 4 kts | 300° |
| 2026-05-07 15:51 | 36.07976 | -115.13857 | 2092 ft | 4 kts | 274° |
| 2026-05-07 15:52 | 36.07980 | -115.13834 | 2092 ft | 1 kts | 225° |
| 2026-05-07 15:53 | 36.07944 | -115.13879 | 2092 ft | 16 kts | 225° |
| 2026-05-07 15:54 | 36.07835 | -115.13912 | 2092 ft | 23 kts | 118° |
| 2026-05-07 15:54 | 36.07828 | -115.13730 | 2091 ft | 21 kts | 89° |
| 2026-05-07 15:54 | 36.07830 | -115.13562 | 2091 ft | 18 kts | 89° |
| 2026-05-07 15:54 | 36.07831 | -115.13411 | 2089 ft | 18 kts | 90° |
| 2026-05-07 15:55 | 36.07830 | -115.13252 | 2086 ft | 21 kts | 90° |
| 2026-05-07 15:55 | 36.07828 | -115.13027 | 2075 ft | 31 kts | 90° |
| 2026-05-07 15:55 | 36.07828 | -115.12732 | 2066 ft | 36 kts | 89° |
| 2026-05-07 15:55 | 36.07828 | -115.12417 | 2056 ft | 34 kts | 90° |
| 2026-05-07 15:56 | 36.07823 | -115.12269 | 2052 ft | 16 kts | 106° |
| 2026-05-07 15:56 | 36.07755 | -115.12153 | 2048 ft | 10 kts | 130° |
| 2026-05-07 15:56 | 36.07743 | -115.12140 | 2048 ft | 0 kts | 142° |
| 2026-05-07 15:57 | 36.07730 | -115.12130 | 2047 ft | 9 kts | 152° |
| 2026-05-07 15:57 | 36.07643 | -115.12174 | 2048 ft | 20 kts | 261° |
| 2026-05-07 15:57 | 36.07642 | -115.12207 | 2049 ft | 0 kts | 270° |
| 2026-05-07 15:58 | 36.07642 | -115.12227 | 2049 ft | 16 kts | 270° |
| 2026-05-07 15:58 | 36.07641 | -115.12652 | 2064 ft | 81 kts | 270° |
| 2026-05-07 15:59 | 36.07640 | -115.13593 | 2090 ft | 136 kts | 270° |
| 2026-05-07 15:59 | 36.07639 | -115.14953 | 2137 ft | 180 kts | 271° |
| 2026-05-07 15:59 | 36.07671 | -115.16571 | 2721 ft | 194 kts | 272° |
| 2026-05-07 15:59 | 36.07763 | -115.18300 | 3466 ft | 205 kts | 275° |
| 2026-05-07 16:00 | 36.07888 | -115.20043 | 4354 ft | 208 kts | 276° |
| 2026-05-07 16:00 | 36.07675 | -115.21819 | 5053 ft | 210 kts | 250° |
| 2026-05-07 16:00 | 36.07234 | -115.23622 | 5554 ft | 225 kts | 254° |
| 2026-05-07 16:00 | 36.06470 | -115.25362 | 6071 ft | 238 kts | 230° |
| 2026-05-07 16:01 | 36.05184 | -115.26661 | 6664 ft | 247 kts | 207° |
| 2026-05-07 16:01 | 36.03580 | -115.27505 | 7293 ft | 255 kts | 201° |
| 2026-05-07 16:01 | 36.01865 | -115.28274 | 7921 ft | 267 kts | 200° |
| 2026-05-07 16:01 | 36.00017 | -115.28784 | 8544 ft | 280 kts | 178° |
| 2026-05-07 16:02 | 35.98134 | -115.28143 | 9169 ft | 285 kts | 147° |
| 2026-05-07 16:02 | 35.96597 | -115.26600 | 9845 ft | 285 kts | 137° |
| 2026-05-07 16:02 | 35.95117 | -115.24942 | 10480 ft | 288 kts | 136° |
| 2026-05-07 16:02 | 35.93615 | -115.23264 | 10869 ft | 304 kts | 136° |
| 2026-05-07 16:03 | 35.91981 | -115.21452 | 11012 ft | 326 kts | 136° |
| 2026-05-07 16:03 | 35.90507 | -115.19233 | 11184 ft | 343 kts | 118° |
| 2026-05-07 16:03 | 35.89339 | -115.16646 | 11650 ft | 352 kts | 117° |
| 2026-05-07 16:03 | 35.88113 | -115.14019 | 12283 ft | 355 kts | 118° |
| 2026-05-07 16:04 | 35.86976 | -115.11284 | 12895 ft | 356 kts | 104° |
| 2026-05-07 16:04 | 35.86651 | -115.08315 | 13607 ft | 351 kts | 87° |
| 2026-05-07 16:04 | 35.86760 | -115.05318 | 14298 ft | 352 kts | 84° |
| 2026-05-07 16:04 | 35.86946 | -115.02262 | 14885 ft | 356 kts | 83° |
| 2026-05-07 16:05 | 35.87148 | -114.99232 | 15449 ft | 360 kts | 83° |
| 2026-05-07 16:05 | 35.87348 | -114.96120 | 16109 ft | 361 kts | 83° |
| 2026-05-07 16:05 | 35.87536 | -114.93043 | 16714 ft | 363 kts | 84° |
| 2026-05-07 16:05 | 35.87718 | -114.89921 | 17289 ft | 366 kts | 84° |
| 2026-05-07 16:06 | 35.87894 | -114.86787 | 17860 ft | 368 kts | 84° |
| 2026-05-07 16:06 | 35.88066 | -114.83639 | 18413 ft | 371 kts | 84° |
| 2026-05-07 16:06 | 35.88239 | -114.80437 | 18942 ft | 374 kts | 84° |
| 2026-05-07 16:06 | 35.88410 | -114.77238 | 19439 ft | 378 kts | 84° |
| 2026-05-07 16:07 | 35.88584 | -114.73988 | 19922 ft | 382 kts | 84° |
| 2026-05-07 16:07 | 35.88759 | -114.70693 | 20408 ft | 385 kts | 84° |
| 2026-05-07 16:07 | 35.88933 | -114.67396 | 20871 ft | 388 kts | 84° |
| 2026-05-07 16:07 | 35.89110 | -114.64044 | 21326 ft | 391 kts | 84° |
| 2026-05-07 16:08 | 35.89287 | -114.60675 | 21748 ft | 395 kts | 84° |
| 2026-05-07 16:08 | 35.89460 | -114.57329 | 22180 ft | 397 kts | 84° |
| 2026-05-07 16:08 | 35.89636 | -114.53912 | 22596 ft | 400 kts | 84° |
| 2026-05-07 16:08 | 35.89768 | -114.50451 | 23002 ft | 404 kts | 86° |
| 2026-05-07 16:09 | 35.89779 | -114.46967 | 23399 ft | 408 kts | 88° |
| 2026-05-07 16:09 | 35.89740 | -114.43457 | 23783 ft | 411 kts | 88° |
| 2026-05-07 16:09 | 35.89690 | -114.39911 | 24161 ft | 414 kts | 88° |
| 2026-05-07 16:09 | 35.89644 | -114.36389 | 24540 ft | 416 kts | 88° |
| 2026-05-07 16:10 | 35.89605 | -114.32799 | 24935 ft | 418 kts | 88° |
| 2026-05-07 16:10 | 35.89573 | -114.29194 | 25332 ft | 420 kts | 88° |
| 2026-05-07 16:10 | 35.89545 | -114.25580 | 25701 ft | 422 kts | 88° |
| 2026-05-07 16:10 | 35.89519 | -114.21943 | 26067 ft | 424 kts | 88° |
| 2026-05-07 16:11 | 35.89495 | -114.18333 | 26403 ft | 427 kts | 88° |
| 2026-05-07 16:11 | 35.89469 | -114.14662 | 26747 ft | 428 kts | 88° |
| 2026-05-07 16:11 | 35.89443 | -114.10979 | 27091 ft | 429 kts | 88° |
| 2026-05-07 16:11 | 35.89415 | -114.07278 | 27401 ft | 431 kts | 88° |
| 2026-05-07 16:12 | 35.89385 | -114.03605 | 27629 ft | 435 kts | 88° |
| 2026-05-07 16:12 | 35.89353 | -113.99867 | 27966 ft | 436 kts | 88° |
| 2026-05-07 16:12 | 35.89320 | -113.96129 | 28331 ft | 436 kts | 88° |
| 2026-05-07 16:12 | 35.89286 | -113.92379 | 28629 ft | 438 kts | 88° |
| 2026-05-07 16:13 | 35.89250 | -113.88596 | 28820 ft | 441 kts | 88° |
| 2026-05-07 16:13 | 35.89214 | -113.84801 | 29119 ft | 442 kts | 88° |
| 2026-05-07 16:13 | 35.89176 | -113.80994 | 29426 ft | 443 kts | 88° |
| 2026-05-07 16:13 | 35.89137 | -113.77228 | 29720 ft | 444 kts | 88° |
| 2026-05-07 16:14 | 35.89097 | -113.73413 | 30023 ft | 444 kts | 88° |
| 2026-05-07 16:14 | 35.89057 | -113.69594 | 30350 ft | 444 kts | 88° |
| 2026-05-07 16:14 | 35.89016 | -113.65797 | 30767 ft | 440 kts | 88° |
| 2026-05-07 16:14 | 35.88977 | -113.62028 | 31147 ft | 438 kts | 88° |
| 2026-05-07 16:15 | 35.88931 | -113.58320 | 31411 ft | 437 kts | 88° |
| 2026-05-07 16:15 | 35.88883 | -113.54560 | 31706 ft | 436 kts | 88° |
| 2026-05-07 16:15 | 35.88697 | -113.50812 | 31981 ft | 438 kts | 94° |
| 2026-05-07 16:15 | 35.88228 | -113.47083 | 32275 ft | 439 kts | 97° |
| 2026-05-07 16:16 | 35.87654 | -113.43427 | 32491 ft | 441 kts | 98° |
| 2026-05-07 16:16 | 35.87034 | -113.39665 | 32695 ft | 442 kts | 98° |
| 2026-05-07 16:16 | 35.86441 | -113.35992 | 32915 ft | 442 kts | 98° |
| 2026-05-07 16:16 | 35.85861 | -113.32261 | 33207 ft | 441 kts | 97° |
| 2026-05-07 16:17 | 35.85303 | -113.28551 | 33182 ft | 445 kts | 97° |
| 2026-05-07 16:17 | 35.84205 | -113.21042 | 33210 ft | 442 kts | 97° |
| 2026-05-07 16:18 | 35.83127 | -113.13615 | 33218 ft | 438 kts | 97° |
| 2026-05-07 16:18 | 35.82059 | -113.06286 | 33226 ft | 436 kts | 97° |
| 2026-05-07 16:19 | 35.80979 | -112.98925 | 33242 ft | 435 kts | 97° |
| 2026-05-07 16:19 | 35.79904 | -112.91625 | 33253 ft | 435 kts | 97° |
| 2026-05-07 16:20 | 35.78818 | -112.84276 | 33262 ft | 436 kts | 97° |
| 2026-05-07 16:20 | 35.77728 | -112.76929 | 33256 ft | 438 kts | 97° |
| 2026-05-07 16:21 | 35.76625 | -112.69538 | 33271 ft | 439 kts | 97° |
| 2026-05-07 16:21 | 35.75512 | -112.62128 | 33268 ft | 440 kts | 97° |
| 2026-05-07 16:22 | 35.74396 | -112.54730 | 33269 ft | 442 kts | 97° |
| 2026-05-07 16:22 | 35.73268 | -112.47260 | 33278 ft | 443 kts | 97° |
| 2026-05-07 16:23 | 35.72143 | -112.39825 | 33273 ft | 444 kts | 97° |
| 2026-05-07 16:23 | 35.71004 | -112.32326 | 33275 ft | 445 kts | 97° |
| 2026-05-07 16:24 | 35.70054 | -112.26103 | 33271 ft | 445 kts | 98° |
| 2026-05-07 16:24 | 35.68719 | -112.17396 | 33276 ft | 445 kts | 98° |
| 2026-05-07 16:25 | 35.67759 | -112.11158 | 33282 ft | 444 kts | 98° |
| 2026-05-07 16:25 | 35.66605 | -112.03687 | 33282 ft | 444 kts | 98° |
| 2026-05-07 16:26 | 35.65456 | -111.96269 | 33285 ft | 443 kts | 98° |
| 2026-05-07 16:26 | 35.64305 | -111.88858 | 33281 ft | 443 kts | 98° |
| 2026-05-07 16:27 | 35.63169 | -111.81416 | 33271 ft | 441 kts | 95° |
| 2026-05-07 16:27 | 35.62707 | -111.73901 | 33281 ft | 438 kts | 89° |
| 2026-05-07 16:28 | 35.62512 | -111.66452 | 33276 ft | 438 kts | 89° |
| 2026-05-07 16:28 | 35.62275 | -111.58951 | 33278 ft | 438 kts | 90° |
| 2026-05-07 16:29 | 35.61977 | -111.51444 | 33276 ft | 439 kts | 90° |
| 2026-05-07 16:29 | 35.61652 | -111.43988 | 33274 ft | 439 kts | 91° |
| 2026-05-07 16:30 | 35.61317 | -111.36495 | 33278 ft | 438 kts | 91° |
| 2026-05-07 16:30 | 35.60977 | -111.29009 | 33269 ft | 438 kts | 91° |
| 2026-05-07 16:31 | 35.60635 | -111.21512 | 33284 ft | 446 kts | 91° |
| 2026-05-07 16:31 | 35.60280 | -111.13818 | 33278 ft | 454 kts | 91° |
| 2026-05-07 16:32 | 35.59915 | -111.06044 | 33275 ft | 462 kts | 91° |
| 2026-05-07 16:32 | 35.59537 | -110.98121 | 33271 ft | 466 kts | 91° |
| 2026-05-07 16:33 | 35.59151 | -110.90138 | 33266 ft | 468 kts | 92° |
| 2026-05-07 16:33 | 35.58758 | -110.82149 | 33265 ft | 468 kts | 92° |
| 2026-05-07 16:34 | 35.58364 | -110.74173 | 33265 ft | 469 kts | 92° |
| 2026-05-07 16:34 | 35.57961 | -110.66163 | 33262 ft | 469 kts | 92° |
| 2026-05-07 16:35 | 35.57557 | -110.58203 | 33253 ft | 469 kts | 92° |
| 2026-05-07 16:35 | 35.57146 | -110.50202 | 33254 ft | 469 kts | 92° |
| 2026-05-07 16:36 | 35.56726 | -110.42204 | 33258 ft | 468 kts | 92° |
| 2026-05-07 16:36 | 35.56304 | -110.34256 | 33264 ft | 467 kts | 92° |
| 2026-05-07 16:37 | 35.55879 | -110.26309 | 33255 ft | 467 kts | 92° |
| 2026-05-07 16:37 | 35.55446 | -110.18331 | 33262 ft | 467 kts | 92° |
| 2026-05-07 16:38 | 35.55009 | -110.10353 | 33259 ft | 467 kts | 92° |
| 2026-05-07 16:38 | 35.54570 | -110.02440 | 33257 ft | 467 kts | 92° |
| 2026-05-07 16:39 | 35.54122 | -109.94475 | 33249 ft | 468 kts | 92° |
| 2026-05-07 16:39 | 35.53668 | -109.86497 | 33267 ft | 469 kts | 93° |
| 2026-05-07 16:40 | 35.53211 | -109.78540 | 33267 ft | 470 kts | 93° |
| 2026-05-07 16:40 | 35.52744 | -109.70508 | 33272 ft | 471 kts | 93° |
| 2026-05-07 16:41 | 35.52270 | -109.62453 | 33266 ft | 472 kts | 93° |
| 2026-05-07 16:41 | 35.51793 | -109.54452 | 33280 ft | 472 kts | 94° |
| 2026-05-07 16:42 | 35.51308 | -109.46389 | 33275 ft | 473 kts | 94° |
| 2026-05-07 16:42 | 35.50819 | -109.38365 | 33277 ft | 474 kts | 94° |
| 2026-05-07 16:43 | 35.50322 | -109.30271 | 33279 ft | 475 kts | 94° |
| 2026-05-07 16:43 | 35.49820 | -109.22198 | 33280 ft | 477 kts | 94° |
| 2026-05-07 16:44 | 35.49310 | -109.14061 | 33276 ft | 478 kts | 94° |
| 2026-05-07 16:44 | 35.48792 | -109.05892 | 33277 ft | 480 kts | 94° |
| 2026-05-07 16:45 | 35.48273 | -108.97757 | 33277 ft | 481 kts | 94° |
| 2026-05-07 16:45 | 35.47741 | -108.89549 | 33276 ft | 482 kts | 95° |
| 2026-05-07 16:46 | 35.46593 | -108.81446 | 33293 ft | 483 kts | 104° |
| 2026-05-07 16:46 | 35.44892 | -108.73454 | 33280 ft | 484 kts | 105° |
| 2026-05-07 16:47 | 35.43194 | -108.65482 | 33286 ft | 486 kts | 105° |
| 2026-05-07 16:47 | 35.41530 | -108.57422 | 33284 ft | 487 kts | 104° |
| 2026-05-07 16:48 | 35.39900 | -108.49418 | 33289 ft | 487 kts | 104° |
| 2026-05-07 16:48 | 35.38250 | -108.41335 | 33281 ft | 488 kts | 104° |
| 2026-05-07 16:49 | 35.36601 | -108.33291 | 33284 ft | 489 kts | 105° |
| 2026-05-07 16:49 | 35.34934 | -108.25200 | 33283 ft | 489 kts | 105° |
| 2026-05-07 16:50 | 35.33273 | -108.17169 | 33290 ft | 489 kts | 105° |
| 2026-05-07 16:50 | 35.31589 | -108.09057 | 33283 ft | 489 kts | 105° |
| 2026-05-07 16:51 | 35.29915 | -108.01028 | 33289 ft | 489 kts | 105° |
| 2026-05-07 16:51 | 35.28220 | -107.92922 | 33278 ft | 491 kts | 106° |
| 2026-05-07 16:52 | 35.26528 | -107.84855 | 33286 ft | 493 kts | 106° |
| 2026-05-07 16:52 | 35.24811 | -107.76698 | 33290 ft | 495 kts | 106° |
| 2026-05-07 16:53 | 35.23083 | -107.68525 | 33287 ft | 496 kts | 106° |
| 2026-05-07 16:53 | 35.21346 | -107.60333 | 33286 ft | 498 kts | 107° |
| 2026-05-07 16:54 | 35.19612 | -107.52176 | 33281 ft | 498 kts | 107° |
| 2026-05-07 16:54 | 35.17856 | -107.43949 | 33279 ft | 499 kts | 107° |
| 2026-05-07 16:55 | 35.16098 | -107.35728 | 33275 ft | 499 kts | 107° |
| 2026-05-07 16:55 | 35.14342 | -107.27561 | 33280 ft | 500 kts | 107° |
| 2026-05-07 16:56 | 35.12565 | -107.19322 | 33270 ft | 501 kts | 107° |
| 2026-05-07 16:56 | 35.09906 | -107.06997 | 33269 ft | 502 kts | 108° |
| 2026-05-07 16:57 | 35.08121 | -106.98737 | 33266 ft | 502 kts | 108° |
| 2026-05-07 16:57 | 35.06330 | -106.90477 | 33271 ft | 503 kts | 108° |
| 2026-05-07 16:58 | 35.04715 | -106.82211 | 33247 ft | 507 kts | 100° |
| 2026-05-07 16:58 | 35.04673 | -106.73577 | 33274 ft | 511 kts | 88° |
| 2026-05-07 16:59 | 35.05229 | -106.64907 | 33253 ft | 512 kts | 87° |
| 2026-05-07 16:59 | 35.05763 | -106.56297 | 33237 ft | 513 kts | 88° |
| 2026-05-07 17:00 | 35.06249 | -106.47599 | 33244 ft | 513 kts | 88° |
| 2026-05-07 17:00 | 35.06708 | -106.38891 | 33238 ft | 514 kts | 88° |
| 2026-05-07 17:01 | 35.07157 | -106.30216 | 33240 ft | 514 kts | 88° |
| 2026-05-07 17:01 | 35.07604 | -106.21499 | 33237 ft | 513 kts | 88° |
| 2026-05-07 17:02 | 35.08048 | -106.12800 | 33241 ft | 513 kts | 88° |
| 2026-05-07 17:02 | 35.08481 | -106.04153 | 33238 ft | 513 kts | 88° |
| 2026-05-07 17:03 | 35.08912 | -105.95450 | 33238 ft | 514 kts | 88° |
| 2026-05-07 17:03 | 35.09336 | -105.86723 | 33244 ft | 515 kts | 89° |
| 2026-05-07 17:04 | 35.09754 | -105.78014 | 33238 ft | 517 kts | 89° |
| 2026-05-07 17:04 | 35.10170 | -105.69226 | 33244 ft | 518 kts | 89° |
| 2026-05-07 17:05 | 35.10578 | -105.60469 | 33251 ft | 518 kts | 89° |
| 2026-05-07 17:05 | 35.10982 | -105.51654 | 33249 ft | 519 kts | 89° |
| 2026-05-07 17:06 | 35.11378 | -105.42898 | 33237 ft | 519 kts | 89° |
| 2026-05-07 17:06 | 35.11769 | -105.34071 | 33234 ft | 520 kts | 89° |
| 2026-05-07 17:07 | 35.12153 | -105.25251 | 33237 ft | 520 kts | 89° |
| 2026-05-07 17:07 | 35.12530 | -105.16457 | 33228 ft | 521 kts | 89° |
| 2026-05-07 17:08 | 35.12902 | -105.07598 | 33224 ft | 521 kts | 89° |
| 2026-05-07 17:08 | 35.13268 | -104.98800 | 33219 ft | 521 kts | 89° |
| 2026-05-07 17:09 | 35.13629 | -104.89925 | 33210 ft | 522 kts | 89° |
| 2026-05-07 17:09 | 35.13987 | -104.81054 | 33207 ft | 523 kts | 89° |
| 2026-05-07 17:10 | 35.14335 | -104.72171 | 33200 ft | 523 kts | 89° |
| 2026-05-07 17:10 | 35.14678 | -104.63339 | 33205 ft | 523 kts | 89° |
| 2026-05-07 17:11 | 35.15013 | -104.54437 | 33196 ft | 524 kts | 90° |
| 2026-05-07 17:11 | 35.15342 | -104.45534 | 33192 ft | 524 kts | 90° |
| 2026-05-07 17:12 | 35.15663 | -104.36694 | 33197 ft | 524 kts | 90° |
| 2026-05-07 17:12 | 35.15981 | -104.27791 | 33188 ft | 524 kts | 90° |
| 2026-05-07 17:13 | 35.16291 | -104.18898 | 33193 ft | 523 kts | 90° |
| 2026-05-07 17:13 | 35.16596 | -104.09996 | 33198 ft | 523 kts | 90° |
| 2026-05-07 17:14 | 35.16893 | -104.01104 | 33195 ft | 523 kts | 90° |
| 2026-05-07 17:14 | 35.17184 | -103.92248 | 33189 ft | 525 kts | 90° |
| 2026-05-07 17:15 | 35.17423 | -103.84818 | 33192 ft | 526 kts | 90° |
| 2026-05-07 17:15 | 35.17706 | -103.75841 | 33187 ft | 527 kts | 90° |
| 2026-05-07 17:16 | 35.17984 | -103.66916 | 33186 ft | 529 kts | 90° |
| 2026-05-07 17:16 | 35.18257 | -103.57887 | 33182 ft | 530 kts | 90° |
| 2026-05-07 17:17 | 35.18556 | -103.48930 | 33188 ft | 530 kts | 90° |
| 2026-05-07 17:17 | 35.18873 | -103.39889 | 33184 ft | 531 kts | 90° |
| 2026-05-07 17:18 | 35.19183 | -103.30839 | 33182 ft | 532 kts | 90° |
| 2026-05-07 17:18 | 35.19481 | -103.21822 | 33183 ft | 533 kts | 90° |
| 2026-05-07 17:19 | 35.19774 | -103.12756 | 33192 ft | 534 kts | 90° |
| 2026-05-07 17:19 | 35.20058 | -103.03666 | 33191 ft | 535 kts | 90° |
| 2026-05-07 17:20 | 35.20336 | -102.94613 | 33193 ft | 536 kts | 90° |
| 2026-05-07 17:20 | 35.20612 | -102.85451 | 33192 ft | 538 kts | 90° |
| 2026-05-07 17:21 | 35.20878 | -102.76367 | 33192 ft | 539 kts | 90° |
| 2026-05-07 17:21 | 35.21139 | -102.67186 | 33200 ft | 539 kts | 90° |
| 2026-05-07 17:22 | 35.21394 | -102.58021 | 33213 ft | 539 kts | 91° |
| 2026-05-07 17:22 | 35.21641 | -102.48850 | 33208 ft | 539 kts | 90° |
| 2026-05-07 17:23 | 35.21879 | -102.39737 | 33210 ft | 539 kts | 91° |
| 2026-05-07 17:23 | 35.22114 | -102.30575 | 33208 ft | 539 kts | 91° |
| 2026-05-07 17:24 | 35.22340 | -102.21407 | 33205 ft | 539 kts | 91° |
| 2026-05-07 17:24 | 35.22561 | -102.12238 | 33203 ft | 539 kts | 91° |
| 2026-05-07 17:25 | 35.22773 | -102.03118 | 33202 ft | 539 kts | 91° |
| 2026-05-07 17:25 | 35.22981 | -101.93913 | 33192 ft | 540 kts | 91° |
| 2026-05-07 17:26 | 35.23182 | -101.84710 | 33205 ft | 543 kts | 91° |
| 2026-05-07 17:26 | 35.23380 | -101.75507 | 33206 ft | 545 kts | 91° |
| 2026-05-07 17:27 | 35.23599 | -101.66214 | 33203 ft | 547 kts | 90° |
| 2026-05-07 17:27 | 35.24012 | -101.56884 | 33203 ft | 549 kts | 89° |
| 2026-05-07 17:28 | 35.24483 | -101.47599 | 33203 ft | 549 kts | 89° |
| 2026-05-07 17:28 | 35.24927 | -101.38252 | 33198 ft | 550 kts | 89° |
| 2026-05-07 17:29 | 35.25343 | -101.28881 | 33190 ft | 551 kts | 89° |
| 2026-05-07 17:29 | 35.25743 | -101.19562 | 33192 ft | 553 kts | 89° |
| 2026-05-07 17:30 | 35.26141 | -101.10137 | 33182 ft | 554 kts | 89° |
| 2026-05-07 17:30 | 35.26533 | -101.00707 | 33183 ft | 555 kts | 89° |
| 2026-05-07 17:31 | 35.26918 | -100.91315 | 33176 ft | 556 kts | 89° |
| 2026-05-07 17:31 | 35.27299 | -100.81825 | 33171 ft | 557 kts | 90° |
| 2026-05-07 17:32 | 35.27674 | -100.72326 | 33176 ft | 559 kts | 90° |
| 2026-05-07 17:32 | 35.28040 | -100.62854 | 33174 ft | 558 kts | 90° |
| 2026-05-07 17:33 | 35.28399 | -100.53336 | 33170 ft | 560 kts | 90° |
| 2026-05-07 17:33 | 35.28751 | -100.43792 | 33164 ft | 561 kts | 90° |
| 2026-05-07 17:34 | 35.29096 | -100.34291 | 33163 ft | 561 kts | 90° |
| 2026-05-07 17:34 | 35.29432 | -100.24730 | 33154 ft | 561 kts | 90° |
| 2026-05-07 17:35 | 35.29764 | -100.15177 | 33147 ft | 562 kts | 90° |
| 2026-05-07 17:35 | 35.30089 | -100.05603 | 33150 ft | 562 kts | 90° |
| 2026-05-07 17:36 | 35.30403 | -99.96105 | 33142 ft | 562 kts | 90° |
| 2026-05-07 17:36 | 35.30709 | -99.86518 | 33145 ft | 564 kts | 90° |
| 2026-05-07 17:37 | 35.31011 | -99.76903 | 33151 ft | 565 kts | 90° |
| 2026-05-07 17:37 | 35.31308 | -99.67242 | 33142 ft | 567 kts | 90° |
| 2026-05-07 17:38 | 35.31600 | -99.57622 | 33145 ft | 567 kts | 90° |
| 2026-05-07 17:38 | 35.31878 | -99.47942 | 33144 ft | 569 kts | 90° |
| 2026-05-07 17:39 | 35.32151 | -99.38289 | 33134 ft | 569 kts | 90° |
| 2026-05-07 17:39 | 35.32417 | -99.28580 | 33134 ft | 569 kts | 90° |
| 2026-05-07 17:40 | 35.32678 | -99.18874 | 33157 ft | 569 kts | 91° |
| 2026-05-07 17:40 | 35.32933 | -99.09238 | 33163 ft | 570 kts | 91° |
| 2026-05-07 17:41 | 35.33178 | -98.99523 | 33175 ft | 570 kts | 91° |
| 2026-05-07 17:41 | 35.33419 | -98.89783 | 33173 ft | 571 kts | 91° |
| 2026-05-07 17:42 | 35.33651 | -98.80082 | 33172 ft | 574 kts | 91° |
| 2026-05-07 17:42 | 35.33870 | -98.70277 | 33171 ft | 575 kts | 91° |
| 2026-05-07 17:43 | 35.34083 | -98.60520 | 33158 ft | 576 kts | 91° |
| 2026-05-07 17:43 | 35.34296 | -98.50695 | 33146 ft | 576 kts | 91° |
| 2026-05-07 17:44 | 35.34503 | -98.40860 | 33154 ft | 577 kts | 91° |
| 2026-05-07 17:44 | 35.34705 | -98.31040 | 33151 ft | 576 kts | 91° |
| 2026-05-07 17:45 | 35.34891 | -98.21275 | 33152 ft | 577 kts | 91° |
| 2026-05-07 17:45 | 35.35074 | -98.11436 | 33148 ft | 576 kts | 91° |
| 2026-05-07 17:46 | 35.35255 | -98.01606 | 33149 ft | 576 kts | 91° |
| 2026-05-07 17:46 | 35.35416 | -97.91853 | 33139 ft | 576 kts | 91° |
| 2026-05-07 17:47 | 35.35573 | -97.82007 | 33150 ft | 577 kts | 91° |
| 2026-05-07 17:47 | 35.35730 | -97.72212 | 33145 ft | 578 kts | 91° |
| 2026-05-07 17:48 | 35.35871 | -97.62341 | 33151 ft | 579 kts | 92° |
| 2026-05-07 17:48 | 35.35283 | -97.52543 | 33175 ft | 575 kts | 102° |
| 2026-05-07 17:49 | 35.34130 | -97.42807 | 33139 ft | 576 kts | 103° |
| 2026-05-07 17:49 | 35.32997 | -97.33107 | 33139 ft | 578 kts | 102° |
| 2026-05-07 17:50 | 35.31941 | -97.23333 | 33140 ft | 579 kts | 102° |
| 2026-05-07 17:50 | 35.30927 | -97.13597 | 33138 ft | 579 kts | 102° |
| 2026-05-07 17:51 | 35.29890 | -97.03825 | 33140 ft | 579 kts | 102° |
| 2026-05-07 17:51 | 35.28839 | -96.94029 | 33148 ft | 579 kts | 102° |
| 2026-05-07 17:52 | 35.27784 | -96.84287 | 33144 ft | 580 kts | 102° |
| 2026-05-07 17:52 | 35.26706 | -96.74474 | 33150 ft | 581 kts | 102° |
| 2026-05-07 17:53 | 35.25628 | -96.64706 | 33151 ft | 583 kts | 102° |
| 2026-05-07 17:53 | 35.24537 | -96.54870 | 33150 ft | 583 kts | 102° |
| 2026-05-07 17:54 | 35.23438 | -96.45021 | 33144 ft | 583 kts | 102° |
| 2026-05-07 17:54 | 35.22332 | -96.35175 | 33148 ft | 584 kts | 102° |
| 2026-05-07 17:55 | 35.21225 | -96.25377 | 33136 ft | 585 kts | 102° |
| 2026-05-07 17:55 | 35.20096 | -96.15503 | 33159 ft | 585 kts | 103° |
| 2026-05-07 17:56 | 35.18959 | -96.05704 | 33143 ft | 584 kts | 103° |
| 2026-05-07 17:56 | 35.17810 | -95.95860 | 33143 ft | 584 kts | 103° |
| 2026-05-07 17:57 | 35.16851 | -95.87684 | 33142 ft | 585 kts | 103° |
| 2026-05-07 17:57 | 35.15497 | -95.76146 | 33163 ft | 586 kts | 103° |
| 2026-05-07 17:58 | 35.14338 | -95.66335 | 33161 ft | 586 kts | 103° |
| 2026-05-07 17:58 | 35.13161 | -95.56444 | 33148 ft | 587 kts | 103° |
| 2026-05-07 17:59 | 35.11977 | -95.46562 | 33148 ft | 588 kts | 103° |
| 2026-05-07 17:59 | 35.10720 | -95.36734 | 33140 ft | 588 kts | 104° |
| 2026-05-07 18:00 | 35.09402 | -95.26871 | 33138 ft | 588 kts | 104° |
| 2026-05-07 18:00 | 35.08088 | -95.16997 | 33141 ft | 588 kts | 104° |
| 2026-05-07 18:01 | 35.06787 | -95.07196 | 33144 ft | 589 kts | 104° |
| 2026-05-07 18:01 | 35.05471 | -94.97302 | 33133 ft | 589 kts | 104° |
| 2026-05-07 18:02 | 35.03488 | -94.82519 | 33150 ft | 589 kts | 104° |
| 2026-05-07 18:03 | 35.02153 | -94.72632 | 33148 ft | 590 kts | 105° |
| 2026-05-07 18:03 | 35.00994 | -94.62763 | 33146 ft | 593 kts | 100° |
| 2026-05-07 18:04 | 35.00276 | -94.52721 | 33150 ft | 594 kts | 98° |
| 2026-05-07 18:04 | 34.99641 | -94.42649 | 33148 ft | 594 kts | 99° |
| 2026-05-07 18:05 | 34.99069 | -94.34286 | 33141 ft | 595 kts | 99° |
| 2026-05-07 18:05 | 34.98330 | -94.24207 | 33127 ft | 595 kts | 99° |
| 2026-05-07 18:06 | 34.97575 | -94.14205 | 33125 ft | 595 kts | 99° |
| 2026-05-07 18:06 | 34.96814 | -94.04158 | 33133 ft | 595 kts | 99° |
| 2026-05-07 18:07 | 34.96044 | -93.94094 | 33111 ft | 596 kts | 99° |
| 2026-05-07 18:07 | 34.95272 | -93.84086 | 33117 ft | 596 kts | 100° |
| 2026-05-07 18:08 | 34.94484 | -93.73984 | 33119 ft | 596 kts | 100° |
| 2026-05-07 18:08 | 34.93696 | -93.63966 | 33123 ft | 597 kts | 100° |
| 2026-05-07 18:09 | 34.92892 | -93.53880 | 33120 ft | 598 kts | 100° |
| 2026-05-07 18:09 | 34.92080 | -93.43792 | 33124 ft | 596 kts | 100° |
| 2026-05-07 18:10 | 34.91264 | -93.33759 | 33116 ft | 594 kts | 100° |
| 2026-05-07 18:10 | 34.90446 | -93.23781 | 33112 ft | 593 kts | 100° |
| 2026-05-07 18:11 | 34.89619 | -93.13841 | 33120 ft | 591 kts | 100° |
| 2026-05-07 18:11 | 34.88781 | -93.03856 | 33126 ft | 591 kts | 100° |
| 2026-05-07 18:12 | 34.87939 | -92.93923 | 33131 ft | 593 kts | 100° |
| 2026-05-07 18:12 | 34.87085 | -92.83897 | 33126 ft | 593 kts | 100° |
| 2026-05-07 18:13 | 34.86224 | -92.73957 | 33123 ft | 593 kts | 100° |
| 2026-05-07 18:13 | 34.85354 | -92.63972 | 33131 ft | 593 kts | 100° |
| 2026-05-07 18:14 | 34.84476 | -92.53968 | 33131 ft | 593 kts | 101° |
| 2026-05-07 18:14 | 34.83595 | -92.44043 | 33136 ft | 593 kts | 101° |
| 2026-05-07 18:15 | 34.82699 | -92.34025 | 33132 ft | 593 kts | 101° |
| 2026-05-07 18:15 | 34.81799 | -92.24020 | 33129 ft | 594 kts | 101° |
| 2026-05-07 18:16 | 34.81114 | -92.14034 | 33118 ft | 598 kts | 92° |
| 2026-05-07 18:16 | 34.81945 | -92.03921 | 33137 ft | 600 kts | 83° |
| 2026-05-07 18:17 | 34.83098 | -91.93914 | 33125 ft | 600 kts | 83° |
| 2026-05-07 18:17 | 34.84198 | -91.83838 | 33120 ft | 600 kts | 83° |
| 2026-05-07 18:18 | 34.85222 | -91.73727 | 33118 ft | 601 kts | 84° |
| 2026-05-07 18:18 | 34.86210 | -91.63678 | 33120 ft | 601 kts | 84° |
| 2026-05-07 18:19 | 34.87207 | -91.53534 | 33122 ft | 602 kts | 84° |
| 2026-05-07 18:19 | 34.88198 | -91.43414 | 33112 ft | 603 kts | 84° |
| 2026-05-07 18:20 | 34.89186 | -91.33272 | 33115 ft | 602 kts | 84° |
| 2026-05-07 18:20 | 34.90159 | -91.23184 | 33131 ft | 602 kts | 84° |
| 2026-05-07 18:21 | 34.91130 | -91.13019 | 33132 ft | 603 kts | 84° |
| 2026-05-07 18:21 | 34.92094 | -91.02847 | 33125 ft | 604 kts | 84° |
| 2026-05-07 18:22 | 34.93044 | -90.92720 | 33120 ft | 603 kts | 84° |
| 2026-05-07 18:22 | 34.93989 | -90.82539 | 33117 ft | 603 kts | 84° |
| 2026-05-07 18:23 | 34.94920 | -90.72425 | 33123 ft | 604 kts | 84° |
| 2026-05-07 18:23 | 34.95849 | -90.62237 | 33120 ft | 604 kts | 84° |
| 2026-05-07 18:24 | 34.96774 | -90.52035 | 33121 ft | 604 kts | 84° |
| 2026-05-07 18:24 | 34.97683 | -90.41893 | 33108 ft | 605 kts | 84° |
| 2026-05-07 18:25 | 34.98590 | -90.31673 | 33112 ft | 605 kts | 84° |
| 2026-05-07 18:25 | 34.99487 | -90.21464 | 33107 ft | 605 kts | 84° |
| 2026-05-07 18:26 | 35.00374 | -90.11326 | 33111 ft | 605 kts | 84° |
| 2026-05-07 18:26 | 35.01206 | -90.01109 | 33103 ft | 605 kts | 89° |
| 2026-05-07 18:27 | 35.00658 | -89.90948 | 33111 ft | 598 kts | 105° |
| 2026-05-07 18:27 | 34.99080 | -89.80985 | 33109 ft | 597 kts | 106° |
| 2026-05-07 18:28 | 34.97498 | -89.71006 | 33102 ft | 598 kts | 105° |
| 2026-05-07 18:28 | 34.96006 | -89.61087 | 33099 ft | 598 kts | 105° |
| 2026-05-07 18:29 | 34.94535 | -89.51076 | 33106 ft | 599 kts | 105° |
| 2026-05-07 18:29 | 34.93059 | -89.41086 | 33098 ft | 598 kts | 105° |
| 2026-05-07 18:30 | 34.91570 | -89.31132 | 33087 ft | 598 kts | 105° |
| 2026-05-07 18:30 | 34.90062 | -89.21147 | 33093 ft | 598 kts | 105° |
| 2026-05-07 18:31 | 34.88557 | -89.11230 | 33101 ft | 598 kts | 105° |
| 2026-05-07 18:31 | 34.87031 | -89.01227 | 33086 ft | 598 kts | 105° |
| 2026-05-07 18:32 | 34.85500 | -88.91262 | 33076 ft | 598 kts | 105° |
| 2026-05-07 18:32 | 34.83974 | -88.81364 | 33085 ft | 598 kts | 105° |
| 2026-05-07 18:33 | 34.82427 | -88.71399 | 33081 ft | 598 kts | 105° |
| 2026-05-07 18:33 | 34.80872 | -88.61443 | 33080 ft | 598 kts | 105° |
| 2026-05-07 18:34 | 34.79321 | -88.51553 | 33088 ft | 597 kts | 106° |
| 2026-05-07 18:34 | 34.77752 | -88.41612 | 33073 ft | 597 kts | 106° |
| 2026-05-07 18:35 | 34.76177 | -88.31678 | 33072 ft | 597 kts | 106° |
| 2026-05-07 18:35 | 34.74603 | -88.21808 | 33071 ft | 596 kts | 106° |
| 2026-05-07 18:36 | 34.73016 | -88.11902 | 33075 ft | 596 kts | 106° |
| 2026-05-07 18:36 | 34.71431 | -88.02079 | 33086 ft | 595 kts | 106° |
| 2026-05-07 18:37 | 34.69826 | -87.92176 | 33076 ft | 595 kts | 106° |
| 2026-05-07 18:37 | 34.68216 | -87.82288 | 33063 ft | 595 kts | 106° |
| 2026-05-07 18:38 | 34.66618 | -87.72495 | 33060 ft | 594 kts | 106° |
| 2026-05-07 18:38 | 34.64991 | -87.62636 | 33055 ft | 594 kts | 107° |
| 2026-05-07 18:39 | 34.63345 | -87.52791 | 33056 ft | 594 kts | 107° |
| 2026-05-07 18:39 | 34.61711 | -87.43002 | 33066 ft | 594 kts | 107° |
| 2026-05-07 18:40 | 34.60191 | -87.33124 | 33069 ft | 596 kts | 105° |
| 2026-05-07 18:40 | 34.58768 | -87.23245 | 33085 ft | 596 kts | 105° |
| 2026-05-07 18:41 | 34.57308 | -87.13326 | 33062 ft | 596 kts | 105° |
| 2026-05-07 18:41 | 34.55826 | -87.03466 | 33066 ft | 596 kts | 105° |
| 2026-05-07 18:42 | 34.54322 | -86.93558 | 33052 ft | 595 kts | 107° |
| 2026-05-07 18:42 | 34.52048 | -86.83998 | 33064 ft | 585 kts | 116° |
| 2026-05-07 18:43 | 34.49402 | -86.74713 | 33051 ft | 585 kts | 115° |
| 2026-05-07 18:43 | 34.46943 | -86.65281 | 33056 ft | 586 kts | 114° |
| 2026-05-07 18:44 | 34.44501 | -86.55913 | 33051 ft | 585 kts | 114° |
| 2026-05-07 18:44 | 34.42023 | -86.46501 | 33030 ft | 583 kts | 115° |
| 2026-05-07 18:45 | 34.39570 | -86.37205 | 33033 ft | 582 kts | 115° |
| 2026-05-07 18:45 | 34.37096 | -86.27849 | 33022 ft | 580 kts | 115° |
| 2026-05-07 18:46 | 34.34647 | -86.18605 | 33019 ft | 579 kts | 115° |
| 2026-05-07 18:46 | 34.32186 | -86.09301 | 33020 ft | 579 kts | 114° |
| 2026-05-07 18:47 | 34.29792 | -86.00072 | 33035 ft | 578 kts | 114° |
| 2026-05-07 18:47 | 34.27385 | -85.90764 | 33024 ft | 578 kts | 114° |
| 2026-05-07 18:48 | 34.24983 | -85.81534 | 33026 ft | 578 kts | 114° |
| 2026-05-07 18:48 | 34.22540 | -85.72205 | 33028 ft | 578 kts | 114° |
| 2026-05-07 18:49 | 34.20119 | -85.62990 | 33033 ft | 578 kts | 114° |
| 2026-05-07 18:49 | 34.17677 | -85.53719 | 33024 ft | 578 kts | 114° |
| 2026-05-07 18:50 | 34.15248 | -85.44515 | 33023 ft | 578 kts | 115° |
| 2026-05-07 18:50 | 34.12853 | -85.35403 | 32414 ft | 558 kts | 114° |
| 2026-05-07 18:50 | 34.11695 | -85.30936 | 31633 ft | 554 kts | 114° |
| 2026-05-07 18:51 | 34.10548 | -85.26505 | 30696 ft | 553 kts | 114° |
| 2026-05-07 18:51 | 34.09399 | -85.22072 | 29761 ft | 552 kts | 114° |
| 2026-05-07 18:51 | 34.08267 | -85.17703 | 28835 ft | 550 kts | 114° |
| 2026-05-07 18:51 | 34.07121 | -85.13298 | 27896 ft | 548 kts | 114° |
| 2026-05-07 18:52 | 34.05967 | -85.08944 | 26949 ft | 542 kts | 117° |
| 2026-05-07 18:52 | 34.04339 | -85.04993 | 25991 ft | 519 kts | 134° |
| 2026-05-07 18:52 | 34.02088 | -85.01828 | 25087 ft | 492 kts | 149° |
| 2026-05-07 18:52 | 33.99493 | -84.99216 | 24159 ft | 481 kts | 153° |
| 2026-05-07 18:53 | 33.97769 | -84.97534 | 23524 ft | 479 kts | 152° |
| 2026-05-07 18:53 | 33.95207 | -84.94975 | 22576 ft | 475 kts | 150° |
| 2026-05-07 18:53 | 33.91899 | -84.91563 | 21314 ft | 470 kts | 149° |
| 2026-05-07 18:53 | 33.89441 | -84.89002 | 20357 ft | 465 kts | 149° |
| 2026-05-07 18:54 | 33.87822 | -84.87319 | 19738 ft | 461 kts | 149° |
| 2026-05-07 18:54 | 33.85394 | -84.84809 | 18789 ft | 456 kts | 149° |
| 2026-05-07 18:54 | 33.82992 | -84.82327 | 17841 ft | 451 kts | 149° |
| 2026-05-07 18:54 | 33.80622 | -84.79878 | 16897 ft | 446 kts | 149° |
| 2026-05-07 18:55 | 33.78273 | -84.77455 | 15948 ft | 441 kts | 148° |
| 2026-05-07 18:55 | 33.76001 | -84.75065 | 15004 ft | 439 kts | 143° |
| 2026-05-07 18:55 | 33.74191 | -84.72059 | 14013 ft | 453 kts | 120° |
| 2026-05-07 18:55 | 33.73240 | -84.68432 | 13079 ft | 454 kts | 100° |
| 2026-05-07 18:56 | 33.73149 | -84.64649 | 12170 ft | 450 kts | 89° |
| 2026-05-07 18:56 | 33.73242 | -84.60966 | 11415 ft | 440 kts | 90° |
| 2026-05-07 18:56 | 33.73290 | -84.57388 | 11182 ft | 416 kts | 90° |
| 2026-05-07 18:56 | 33.73303 | -84.54017 | 11032 ft | 394 kts | 91° |
| 2026-05-07 18:57 | 33.73300 | -84.50811 | 10977 ft | 372 kts | 91° |
| 2026-05-07 18:57 | 33.73297 | -84.47788 | 10964 ft | 351 kts | 91° |
| 2026-05-07 18:57 | 33.73292 | -84.44903 | 10970 ft | 341 kts | 91° |
| 2026-05-07 18:57 | 33.73298 | -84.42087 | 10653 ft | 336 kts | 90° |
| 2026-05-07 18:58 | 33.73299 | -84.39304 | 10360 ft | 330 kts | 92° |
| 2026-05-07 18:58 | 33.73294 | -84.36553 | 9962 ft | 327 kts | 90° |
| 2026-05-07 18:58 | 33.73282 | -84.33785 | 9387 ft | 333 kts | 92° |
| 2026-05-07 18:58 | 33.73235 | -84.31021 | 8958 ft | 330 kts | 91° |
| 2026-05-07 18:59 | 33.73279 | -84.28309 | 8517 ft | 326 kts | 89° |
| 2026-05-07 18:59 | 33.73311 | -84.25598 | 8067 ft | 323 kts | 90° |
| 2026-05-07 18:59 | 33.73308 | -84.22916 | 7609 ft | 318 kts | 91° |
| 2026-05-07 18:59 | 33.73304 | -84.20268 | 7152 ft | 314 kts | 91° |
| 2026-05-07 19:00 | 33.73302 | -84.17653 | 6711 ft | 311 kts | 90° |
| 2026-05-07 19:00 | 33.73302 | -84.15069 | 6265 ft | 308 kts | 90° |
| 2026-05-07 19:00 | 33.73303 | -84.12538 | 5830 ft | 305 kts | 90° |
| 2026-05-07 19:00 | 33.73308 | -84.10011 | 5528 ft | 297 kts | 90° |
| 2026-05-07 19:01 | 33.73310 | -84.07597 | 5482 ft | 279 kts | 90° |
| 2026-05-07 19:01 | 33.73300 | -84.05331 | 5459 ft | 264 kts | 95° |
| 2026-05-07 19:01 | 33.72713 | -84.03287 | 5492 ft | 267 kts | 132° |
| 2026-05-07 19:01 | 33.71206 | -84.01948 | 5492 ft | 279 kts | 166° |
| 2026-05-07 19:02 | 33.69329 | -84.01819 | 5485 ft | 269 kts | 200° |
| 2026-05-07 19:02 | 33.67766 | -84.02889 | 5495 ft | 260 kts | 227° |
| 2026-05-07 19:02 | 33.66663 | -84.04607 | 5482 ft | 258 kts | 243° |
| 2026-05-07 19:02 | 33.65964 | -84.06576 | 5482 ft | 258 kts | 253° |
| 2026-05-07 19:03 | 33.65520 | -84.08678 | 5481 ft | 259 kts | 259° |
| 2026-05-07 19:03 | 33.65231 | -84.10804 | 5483 ft | 258 kts | 263° |
| 2026-05-07 19:03 | 33.65046 | -84.12921 | 5417 ft | 257 kts | 266° |
| 2026-05-07 19:03 | 33.64988 | -84.15095 | 5141 ft | 263 kts | 269° |
| 2026-05-07 19:04 | 33.64985 | -84.17292 | 4812 ft | 261 kts | 270° |
| 2026-05-07 19:04 | 33.64988 | -84.19462 | 4456 ft | 257 kts | 270° |
| 2026-05-07 19:04 | 33.64985 | -84.21561 | 4129 ft | 251 kts | 269° |
| 2026-05-07 19:04 | 33.64978 | -84.23633 | 3795 ft | 244 kts | 270° |
| 2026-05-07 19:05 | 33.64974 | -84.25655 | 3472 ft | 238 kts | 270° |
| 2026-05-07 19:05 | 33.64971 | -84.27590 | 3188 ft | 231 kts | 270° |
| 2026-05-07 19:05 | 33.64967 | -84.29477 | 2869 ft | 220 kts | 270° |
| 2026-05-07 19:05 | 33.64964 | -84.31240 | 2572 ft | 202 kts | 270° |
| 2026-05-07 19:06 | 33.64961 | -84.32862 | 2326 ft | 185 kts | 272° |
| 2026-05-07 19:06 | 33.64958 | -84.35692 | 1877 ft | 156 kts | 274° |
| 2026-05-07 19:06 | 33.64957 | -84.36998 | 1694 ft | 157 kts | 274° |
| 2026-05-07 19:07 | 33.64955 | -84.38287 | 1473 ft | 151 kts | 272° |
| 2026-05-07 19:07 | 33.64945 | -84.39554 | 1289 ft | 153 kts | 274° |
| 2026-05-07 19:07 | 33.64956 | -84.40817 | 1099 ft | 154 kts | 272° |
| 2026-05-07 19:07 | 33.64954 | -84.42070 | 1036 ft | 141 kts | 272° |
| 2026-05-07 19:08 | 33.64954 | -84.42983 | 1034 ft | 62 kts | 269° |
| 2026-05-07 19:08 | 33.64872 | -84.43316 | 1034 ft | 29 kts | 245° |
| 2026-05-07 19:08 | 33.64812 | -84.43530 | 1035 ft | 27 kts | 220° |
| 2026-05-07 19:08 | 33.64657 | -84.43646 | 1034 ft | 25 kts | 211° |
| 2026-05-07 19:09 | 33.64545 | -84.43743 | 1034 ft | 15 kts | 241° |
| 2026-05-07 19:09 | 33.64460 | -84.43813 | 1034 ft | 21 kts | 162° |
| 2026-05-07 19:09 | 33.64339 | -84.43787 | 1034 ft | 16 kts | 181° |
| 2026-05-07 19:09 | 33.64234 | -84.43801 | 1034 ft | 15 kts | 225° |
| 2026-05-07 19:10 | 33.64224 | -84.43864 | 1034 ft | 0 kts | 271° |